Time;durP1;ratioP1;P1;durP2;ratioP2;P2;SDS_P1;SDS_P2;PMS_P1;PMS_P2;Temp;Humidity;BMP_temperature;BMP_pressure;BME280_temperature;BME280_humidity;BME280_pressure;Samples;Min_cycle;Max_cycle;Signal;HPM_P1;HPM_P2
2023/05/06 00:02:33;;;;;;;5.72;5.03;;;13.00;99.90;;;;;;5045452;28;20065;-85
2023/05/06 00:05:20;;;;;;;8.77;4.97;;;13.00;99.90;;;;;;5046388;28;20124;-87
2023/05/06 00:08:08;;;;;;;7.70;5.03;;;13.00;99.90;;;;;;5042450;28;20049;-87
2023/05/06 00:10:56;;;;;;;7.43;4.82;;;13.00;99.90;;;;;;5043766;28;20049;-88
2023/05/06 00:13:46;;;;;;;10.52;5.30;;;12.90;99.90;;;;;;5043529;28;20057;-87
2023/05/06 00:16:33;;;;;;;9.43;5.07;;;12.90;99.90;;;;;;5044944;28;20105;-87
2023/05/06 00:19:23;;;;;;;6.60;5.35;;;12.90;99.90;;;;;;5052527;28;20065;-87
2023/05/06 00:22:10;;;;;;;11.98;5.72;;;12.80;99.90;;;;;;5052150;28;20042;-85
2023/05/06 00:24:57;;;;;;;5.93;5.10;;;12.70;99.90;;;;;;5049777;28;20053;-87
2023/05/06 00:27:45;;;;;;;8.27;5.18;;;12.70;99.90;;;;;;5056073;28;20360;-87
2023/05/06 00:30:34;;;;;;;7.57;5.13;;;12.60;99.90;;;;;;5049558;28;20054;-87
2023/05/06 00:33:23;;;;;;;7.90;5.53;;;12.60;99.90;;;;;;5033104;28;20077;-86
2023/05/06 00:36:11;;;;;;;6.88;5.00;;;12.60;99.90;;;;;;5036625;28;20125;-86
2023/05/06 00:38:58;;;;;;;6.43;5.30;;;12.60;99.90;;;;;;5052929;28;20041;-86
2023/05/06 00:41:45;;;;;;;10.25;5.70;;;12.60;99.90;;;;;;5038485;28;20134;-86
2023/05/06 00:44:35;;;;;;;5.30;4.72;;;12.60;99.90;;;;;;5039319;28;20057;-87
2023/05/06 00:47:24;;;;;;;5.75;4.82;;;12.60;99.90;;;;;;5042839;28;20053;-84
2023/05/06 00:50:13;;;;;;;6.18;4.60;;;12.60;99.90;;;;;;5049686;28;20057;-85
2023/05/06 00:53:03;;;;;;;9.48;5.03;;;12.60;99.90;;;;;;5045991;28;20062;-86
2023/05/06 00:55:50;;;;;;;8.93;4.90;;;12.50;99.90;;;;;;5029141;28;20512;-87
2023/05/06 00:58:39;;;;;;;6.13;4.72;;;12.60;99.90;;;;;;5038203;28;20141;-87
2023/05/06 01:01:29;;;;;;;8.07;4.53;;;12.50;99.90;;;;;;5034454;28;20065;-89
2023/05/06 01:04:17;;;;;;;7.03;4.88;;;12.50;99.90;;;;;;5028362;28;20123;-87
2023/05/06 01:07:27;;;;;;;6.50;5.10;;;12.50;99.90;;;;;;5039637;28;20104;-89
2023/05/06 01:10:37;;;;;;;4.90;4.40;;;12.50;99.90;;;;;;5037747;28;20049;-91
2023/05/06 01:13:49;;;;;;;8.40;4.68;;;12.50;99.90;;;;;;5036941;28;20499;-87
2023/05/06 01:16:40;;;;;;;7.47;4.65;;;12.50;99.90;;;;;;5043500;28;20041;-90
2023/05/06 01:19:52;;;;;;;6.45;4.88;;;12.40;99.90;;;;;;5046254;28;20465;-88
2023/05/06 01:22:40;;;;;;;8.80;5.18;;;12.40;99.90;;;;;;5038612;28;20042;-88
2023/05/06 01:25:29;;;;;;;5.97;4.95;;;12.30;99.90;;;;;;5050193;28;20101;-88
2023/05/06 01:28:16;;;;;;;7.55;4.90;;;12.30;99.90;;;;;;5043605;28;20061;-87
2023/05/06 01:31:13;;;;;;;5.07;4.45;;;12.20;99.90;;;;;;5048971;28;20409;-88
2023/05/06 01:34:17;;;;;;;7.53;4.88;;;12.20;99.90;;;;;;5043315;28;20089;-87
2023/05/06 01:37:36;;;;;;;9.38;5.82;;;12.20;99.90;;;;;;5042962;28;20061;-88
2023/05/06 01:40:26;;;;;;;7.68;5.10;;;12.20;99.90;;;;;;5041742;28;20088;-87
2023/05/06 01:43:20;;;;;;;8.32;5.85;;;12.20;99.90;;;;;;5029350;28;20150;-88
2023/05/06 01:46:12;;;;;;;7.75;5.55;;;12.20;99.90;;;;;;5042935;28;20064;-87
2023/05/06 01:49:09;;;;;;;12.23;6.47;;;12.20;99.90;;;;;;5045508;28;20080;-87
2023/05/06 01:51:57;;;;;;;8.50;5.60;;;12.20;99.90;;;;;;5044217;28;20079;-86
2023/05/06 01:54:46;;;;;;;7.47;5.93;;;12.20;99.90;;;;;;5032453;28;20046;-88
2023/05/06 01:57:34;;;;;;;7.20;5.40;;;12.20;99.90;;;;;;5042085;28;20061;-87
2023/05/06 02:00:23;;;;;;;8.27;5.80;;;12.30;99.90;;;;;;5044390;28;20041;-88
2023/05/06 02:03:11;;;;;;;10.95;5.43;;;12.30;99.90;;;;;;5048817;28;20049;-88
2023/05/06 02:05:58;;;;;;;10.93;5.53;;;12.30;99.90;;;;;;5044117;28;20387;-87
2023/05/06 02:08:45;;;;;;;9.38;5.70;;;12.30;99.90;;;;;;5044995;28;20072;-88
2023/05/06 02:11:32;;;;;;;11.93;5.88;;;12.30;99.90;;;;;;5044779;28;20119;-87
2023/05/06 02:14:19;;;;;;;8.93;5.30;;;12.30;99.90;;;;;;5045870;28;20025;-88
2023/05/06 02:17:09;;;;;;;7.50;5.35;;;12.30;99.90;;;;;;5047234;28;20114;-87
2023/05/06 02:19:56;;;;;;;6.97;5.55;;;12.30;99.90;;;;;;5039965;28;20132;-86
2023/05/06 02:22:45;;;;;;;10.00;5.30;;;12.30;99.90;;;;;;5023474;28;20056;-87
2023/05/06 02:25:34;;;;;;;8.88;5.78;;;12.30;99.90;;;;;;5047190;28;20069;-88
2023/05/06 02:28:24;;;;;;;10.93;6.43;;;12.30;99.90;;;;;;5043328;28;20057;-89
2023/05/06 02:31:14;;;;;;;10.13;5.63;;;12.30;99.90;;;;;;5023866;28;20392;-86
2023/05/06 02:34:01;;;;;;;9.63;6.10;;;12.30;99.90;;;;;;5045965;28;20132;-88
2023/05/06 02:36:51;;;;;;;10.40;6.68;;;12.20;99.90;;;;;;5047210;28;20542;-88
2023/05/06 02:39:41;;;;;;;8.50;6.18;;;12.20;99.90;;;;;;5051458;28;20048;-84
2023/05/06 02:42:28;;;;;;;6.50;5.57;;;12.20;99.90;;;;;;5034574;28;20080;-86
2023/05/06 02:45:17;;;;;;;6.47;5.88;;;12.10;99.90;;;;;;5036913;28;20060;-84
2023/05/06 02:48:05;;;;;;;9.82;5.97;;;12.10;99.90;;;;;;5033915;28;20077;-88
2023/05/06 02:50:54;;;;;;;7.97;5.97;;;12.10;99.90;;;;;;5052721;28;20053;-88
2023/05/06 02:53:41;;;;;;;6.45;5.35;;;12.10;99.90;;;;;;5049614;28;20045;-87
2023/05/06 02:56:31;;;;;;;7.75;5.82;;;12.00;99.90;;;;;;5046017;28;20036;-82
2023/05/06 02:59:18;;;;;;;7.18;5.70;;;12.10;99.90;;;;;;5057890;28;20018;-81
2023/05/06 03:02:05;;;;;;;8.27;6.38;;;12.10;99.90;;;;;;5056723;28;20030;-84
2023/05/06 03:04:54;;;;;;;6.63;5.38;;;12.00;99.90;;;;;;5043294;28;20033;-82
2023/05/06 03:07:42;;;;;;;7.70;5.70;;;12.00;99.90;;;;;;5058146;28;20029;-85
2023/05/06 03:10:29;;;;;;;7.75;5.28;;;12.00;99.90;;;;;;5057778;28;20040;-80
2023/05/06 03:13:18;;;;;;;8.75;5.22;;;11.90;99.90;;;;;;5041141;28;20083;-85
2023/05/06 03:16:11;;;;;;;7.15;6.13;;;11.80;99.90;;;;;;5039975;28;20042;-88
2023/05/06 03:19:02;;;;;;;8.88;5.60;;;11.80;99.90;;;;;;5026821;28;20045;-87
2023/05/06 03:21:49;;;;;;;7.35;5.95;;;11.80;99.90;;;;;;5047393;28;20089;-90
2023/05/06 03:24:40;;;;;;;10.70;6.57;;;11.70;99.90;;;;;;5041925;28;20364;-87
2023/05/06 03:27:27;;;;;;;6.80;5.57;;;11.70;99.90;;;;;;5039060;28;20045;-86
2023/05/06 03:30:15;;;;;;;9.07;6.63;;;11.60;99.90;;;;;;5029836;28;20084;-89
2023/05/06 03:33:02;;;;;;;11.13;7.00;;;11.60;99.90;;;;;;5030235;28;20057;-88
2023/05/06 03:35:49;;;;;;;9.20;6.88;;;11.50;99.90;;;;;;5036260;28;20365;-90
2023/05/06 03:38:37;;;;;;;13.95;7.93;;;11.40;99.90;;;;;;5035109;28;20152;-87
2023/05/06 03:41:24;;;;;;;9.95;8.00;;;11.20;99.90;;;;;;5038208;28;20440;-89
2023/05/06 03:44:11;;;;;;;13.07;8.45;;;11.10;99.90;;;;;;5020603;28;20056;-88
2023/05/06 03:46:58;;;;;;;18.17;9.48;;;11.00;99.90;;;;;;5038338;28;20053;-89
2023/05/06 03:49:46;;;;;;;13.65;9.63;;;11.10;99.90;;;;;;5025327;28;20053;-90
2023/05/06 03:52:33;;;;;;;15.82;9.85;;;11.10;99.90;;;;;;5038793;28;20045;-88
2023/05/06 03:55:22;;;;;;;12.85;9.10;;;11.10;99.90;;;;;;5038467;28;20057;-90
2023/05/06 03:58:10;;;;;;;10.90;9.63;;;11.00;99.90;;;;;;5030747;28;20061;-89
2023/05/06 04:00:59;;;;;;;12.73;10.13;;;11.00;99.90;;;;;;5038922;28;20068;-86
2023/05/06 04:03:50;;;;;;;17.27;11.10;;;11.00;99.90;;;;;;5036684;28;20483;-87
2023/05/06 04:06:38;;;;;;;15.60;10.95;;;11.00;99.90;;;;;;5031470;28;20064;-88
2023/05/06 04:09:25;;;;;;;15.88;9.95;;;11.00;99.90;;;;;;5036006;28;20111;-87
2023/05/06 04:12:12;;;;;;;14.48;10.27;;;11.00;99.90;;;;;;5039632;28;20148;-86
2023/05/06 04:14:59;;;;;;;19.35;10.90;;;11.00;99.90;;;;;;5028732;28;20041;-89
2023/05/06 04:17:49;;;;;;;13.27;10.85;;;10.90;99.90;;;;;;5039606;28;20057;-88
2023/05/06 04:20:36;;;;;;;13.40;10.55;;;10.80;99.90;;;;;;5033419;28;20037;-89
2023/05/06 04:23:23;;;;;;;17.15;11.60;;;10.70;99.90;;;;;;5024736;28;20077;-86
2023/05/06 04:26:13;;;;;;;15.98;10.98;;;10.70;99.90;;;;;;5036765;28;20045;-87
2023/05/06 04:29:00;;;;;;;14.07;11.90;;;10.70;99.90;;;;;;5040254;28;20456;-87
2023/05/06 04:31:47;;;;;;;14.20;11.82;;;10.80;99.90;;;;;;5022656;28;20531;-85
2023/05/06 04:34:37;;;;;;;21.55;12.75;;;10.80;99.90;;;;;;5032016;28;20073;-87
2023/05/06 04:37:24;;;;;;;16.42;12.60;;;10.80;99.90;;;;;;5036671;28;20045;-88
2023/05/06 04:40:14;;;;;;;21.98;14.07;;;10.80;99.90;;;;;;5035907;28;20044;-89
2023/05/06 04:43:01;;;;;;;23.65;14.98;;;10.70;99.90;;;;;;5034229;28;20088;-86
2023/05/06 04:45:51;;;;;;;24.23;16.35;;;10.70;99.90;;;;;;5031595;28;20050;-86
2023/05/06 04:48:39;;;;;;;23.80;15.18;;;10.80;99.90;;;;;;5037145;28;20050;-87
2023/05/06 04:51:26;;;;;;;17.50;13.65;;;10.70;99.90;;;;;;5028792;28;20049;-88
2023/05/06 04:54:13;;;;;;;20.38;15.57;;;10.80;99.90;;;;;;5040512;28;20041;-87
2023/05/06 04:57:02;;;;;;;19.17;14.95;;;10.80;99.90;;;;;;5030955;28;20050;-88
2023/05/06 04:59:49;;;;;;;19.85;14.68;;;10.80;99.90;;;;;;5033593;28;20449;-88
2023/05/06 05:02:36;;;;;;;19.13;15.38;;;10.80;99.90;;;;;;5028741;28;20398;-89
2023/05/06 05:05:29;;;;;;;21.23;15.93;;;10.80;99.90;;;;;;5039775;28;20054;-86
2023/05/06 05:08:16;;;;;;;22.08;16.55;;;10.90;99.90;;;;;;5037219;28;20046;-88
2023/05/06 05:11:05;;;;;;;23.25;15.85;;;10.90;99.90;;;;;;5041463;28;20049;-88
2023/05/06 05:13:52;;;;;;;19.60;14.30;;;11.00;99.90;;;;;;5046760;28;20057;-82
2023/05/06 05:16:44;;;;;;;17.08;14.70;;;11.00;99.90;;;;;;5032892;28;20045;-86
2023/05/06 05:19:32;;;;;;;22.83;15.02;;;11.20;99.90;;;;;;5045562;28;20045;-89
2023/05/06 05:22:19;;;;;;;18.02;14.43;;;11.30;99.90;;;;;;5030082;28;20057;-87
2023/05/06 05:25:09;;;;;;;19.02;14.00;;;11.30;99.90;;;;;;5046327;28;20049;-89
2023/05/06 05:27:56;;;;;;;14.73;12.50;;;11.40;99.90;;;;;;5053512;28;20376;-86
2023/05/06 05:30:45;;;;;;;13.95;11.93;;;11.50;99.90;;;;;;5036799;28;20371;-85
2023/05/06 05:33:33;;;;;;;11.95;10.63;;;11.50;99.90;;;;;;5044096;28;20075;-88
2023/05/06 05:36:20;;;;;;;13.35;10.30;;;11.50;99.90;;;;;;5045901;28;20110;-89
2023/05/06 05:39:08;;;;;;;10.77;9.00;;;11.60;99.90;;;;;;5038561;28;20041;-89
2023/05/06 05:41:55;;;;;;;13.48;8.38;;;11.60;99.90;;;;;;5039995;28;20068;-88
2023/05/06 05:44:43;;;;;;;8.57;7.53;;;11.70;99.90;;;;;;5051920;28;20084;-83
2023/05/06 05:47:31;;;;;;;10.07;7.65;;;11.80;99.90;;;;;;5052278;28;20148;-86
2023/05/06 05:50:20;;;;;;;8.85;7.00;;;11.80;99.90;;;;;;5045930;28;20068;-86
2023/05/06 05:53:07;;;;;;;9.27;6.35;;;11.90;99.90;;;;;;5036387;28;20101;-89
2023/05/06 05:55:55;;;;;;;9.18;6.78;;;12.10;99.90;;;;;;5041988;28;20041;-87
2023/05/06 05:58:42;;;;;;;8.10;6.28;;;12.20;99.90;;;;;;5054078;28;20035;-83
2023/05/06 06:01:29;;;;;;;7.88;6.00;;;12.30;99.90;;;;;;5026962;28;20107;-87
2023/05/06 06:04:18;;;;;;;6.03;5.43;;;12.50;99.90;;;;;;5047420;28;20064;-87
2023/05/06 06:07:40;;;;;;;7.28;5.82;;;12.60;99.90;;;;;;5036794;28;20044;-84
2023/05/06 06:10:52;;;;;;;6.63;5.10;;;12.70;99.90;;;;;;5040190;28;20054;-87
2023/05/06 06:13:45;;;;;;;7.57;4.90;;;12.90;99.90;;;;;;5053036;28;20042;-89
2023/05/06 06:16:41;;;;;;;8.18;4.90;;;13.00;99.90;;;;;;5027844;28;20368;-88
2023/05/06 06:19:40;;;;;;;6.35;4.20;;;13.00;99.90;;;;;;5035910;28;20048;-88
2023/05/06 06:22:29;;;;;;;6.22;5.25;;;13.00;99.90;;;;;;5048264;28;20069;-89
2023/05/06 06:25:46;;;;;;;;;;;;;;;;;;;;;
2023/05/06 06:28:53;;;;;;;5.88;4.90;;;13.40;1.00;;;;;;5046334;28;20123;-89
2023/05/06 06:32:06;;;;;;;7.88;3.97;;;13.50;1.00;;;;;;4975593;28;20031;-89
2023/05/06 06:35:05;;;;;;;6.80;3.83;;;13.60;56.50;;;;;;4991147;28;20050;-88
2023/05/06 06:37:53;;;;;;;3.65;3.33;;;13.70;99.90;;;;;;4976574;28;20114;-87
2023/05/06 06:40:48;;;;;;;5.25;3.58;;;13.90;1.00;;;;;;4992483;28;20065;-86
2023/05/06 06:43:39;;;;;;;7.00;3.40;;;14.20;1.00;;;;;;4991973;28;20049;-84
2023/05/06 06:47:08;;;;;;;5.75;3.00;;;14.30;1.00;;;;;;4985657;28;20043;-86
2023/05/06 06:50:40;;;;;;;5.93;3.17;;;14.40;99.90;;;;;;4953025;29;20050;-90
2023/05/06 06:53:55;;;;;;;3.75;2.75;;;14.50;1.00;;;;;;4952102;29;20067;-88
2023/05/06 06:56:59;;;;;;;6.90;2.75;;;14.60;99.90;;;;;;4946357;29;20052;-88
2023/05/06 06:59:57;;;;;;;;;;;;;;;;;;;;;
2023/05/06 07:03:01;;;;;;;5.47;2.90;;;15.30;68.90;;;;;;4956554;28;20098;-87
2023/05/06 07:06:12;;;;;;;3.97;2.35;;;15.70;1.00;;;;;;4969536;28;20049;-86
2023/05/06 07:09:23;;;;;;;2.83;2.28;;;16.20;99.90;;;;;;5036543;28;20041;-88
2023/05/06 07:12:31;;;;;;;5.63;2.38;;;16.80;1.00;;;;;;5030132;28;20149;-85
2023/05/06 07:15:24;;;;;;;3.30;2.00;;;16.90;99.90;;;;;;5047608;28;20128;-90
2023/05/06 07:18:11;;;;;;;4.93;2.28;;;17.10;99.90;;;;;;5046277;28;20041;-91
2023/05/06 07:21:01;;;;;;;4.53;2.25;;;18.00;99.90;;;;;;5039120;28;20045;-87
2023/05/06 07:23:49;;;;;;;4.20;1.80;;;18.50;99.90;;;;;;5035556;28;20056;-89
2023/05/06 07:26:54;;;;;;;4.20;1.55;;;18.70;90.60;;;;;;5050164;28;20105;-89
2023/05/06 07:29:47;;;;;;;3.80;1.85;;;18.80;1.00;;;;;;5046378;28;20056;-86
2023/05/06 07:32:39;;;;;;;6.05;1.33;;;18.70;1.00;;;;;;5041077;28;20113;-86
2023/05/06 07:35:43;;;;;;;3.88;1.42;;;18.20;1.00;;;;;;5051205;28;20049;-86
2023/05/06 07:38:31;;;;;;;3.95;1.63;;;17.60;1.00;;;;;;5033089;28;20057;-86
2023/05/06 07:41:22;;;;;;;2.63;1.92;;;17.20;1.00;;;;;;5049236;28;20057;-86
2023/05/06 07:44:25;;;;;;;4.80;1.77;;;17.10;1.00;;;;;;5035294;28;20271;-85
2023/05/06 07:47:30;;;;;;;3.75;1.70;;;16.80;1.00;;;;;;5055849;28;20077;-87
2023/05/06 07:50:19;;;;;;;2.22;1.45;;;16.60;26.30;;;;;;5032702;28;20064;-85
2023/05/06 07:53:19;;;;;;;3.15;1.75;;;16.70;45.70;;;;;;5047339;28;20068;-90
2023/05/06 07:56:07;;;;;;;3.17;1.65;;;17.50;99.90;;;;;;5036177;28;20060;-87
2023/05/06 07:58:58;;;;;;;2.72;1.52;;;18.60;1.00;;;;;;5052257;28;20034;-87
2023/05/06 08:01:48;;;;;;;3.10;1.58;;;19.30;1.00;;;;;;5051367;28;20114;-88
2023/05/06 08:04:36;;;;;;;4.63;1.60;;;20.10;1.00;;;;;;5044907;28;20049;-89
2023/05/06 08:07:23;;;;;;;4.13;1.63;;;20.90;99.90;;;;;;5042064;28;20077;-88
2023/05/06 08:10:24;;;;;;;;;;;;;;;;;;;;;
2023/05/06 08:13:14;;;;;;;2.38;1.10;;;21.70;99.90;;;;;;5043685;28;20045;-87
2023/05/06 08:16:09;;;;;;;0.95;0.90;;;21.30;99.90;;;;;;5052980;28;20048;-86
2023/05/06 08:18:59;;;;;;;3.20;1.13;;;20.90;99.90;;;;;;5050430;28;20088;-86
2023/05/06 08:21:54;;;;;;;2.97;0.90;;;20.30;99.90;;;;;;5038967;28;20045;-88
2023/05/06 08:24:53;;;;;;;4.15;1.10;;;20.00;99.90;;;;;;5031484;28;20084;-87
2023/05/06 08:27:40;;;;;;;1.55;1.10;;;19.50;99.90;;;;;;5025534;28;20059;-87
2023/05/06 08:30:28;;;;;;;2.45;0.90;;;19.10;99.90;;;;;;5030232;28;20057;-88
2023/05/06 08:33:18;;;;;;;3.35;1.00;;;19.70;99.90;;;;;;5046233;28;20145;-87
2023/05/06 08:36:06;;;;;;;2.42;1.40;;;20.40;99.90;;;;;;5041449;28;20107;-87
2023/05/06 08:38:57;;;;;;;2.50;0.90;;;20.90;99.90;;;;;;5038431;28;20037;-90
2023/05/06 08:41:51;;;;;;;4.22;1.00;;;20.70;99.90;;;;;;5043777;28;20042;-88
2023/05/06 08:44:43;;;;;;;1.48;0.95;;;21.10;99.90;;;;;;5053722;28;20045;-85
2023/05/06 08:47:30;;;;;;;2.40;1.00;;;21.90;99.90;;;;;;5034823;28;20096;-89
2023/05/06 08:50:44;;;;;;;1.00;0.68;;;21.90;99.90;;;;;;5054229;28;20065;-89
2023/05/06 08:53:37;;;;;;;0.40;0.35;;;22.30;99.90;;;;;;5042516;28;20056;-88
2023/05/06 08:56:28;;;;;;;1.65;0.60;;;22.80;99.90;;;;;;5038927;28;20518;-86
2023/05/06 08:59:17;;;;;;;1.15;0.50;;;23.20;99.90;;;;;;5031332;28;20128;-87
2023/05/06 09:02:09;;;;;;;1.52;0.50;;;23.80;99.90;;;;;;5035236;28;20042;-89
2023/05/06 09:05:01;;;;;;;3.15;0.77;;;24.10;99.90;;;;;;5045410;28;20112;-86
2023/05/06 09:07:56;;;;;;;3.08;0.90;;;23.90;99.90;;;;;;5015630;28;20041;-89
2023/05/06 09:10:45;;;;;;;1.52;0.90;;;22.80;99.90;;;;;;5023379;28;20060;-88
2023/05/06 09:13:32;;;;;;;4.00;0.88;;;21.80;99.90;;;;;;5034522;28;20053;-90
2023/05/06 09:16:32;;;;;;;2.03;1.00;;;21.40;99.90;;;;;;5031131;28;20100;-88
2023/05/06 09:19:21;;;;;;;2.17;0.90;;;21.50;99.90;;;;;;5038983;28;20384;-86
2023/05/06 09:22:08;;;;;;;2.58;0.82;;;21.60;99.90;;;;;;5036898;28;20230;-89
2023/05/06 09:25:00;;;;;;;1.08;0.60;;;21.40;99.90;;;;;;5058989;28;20045;-87
2023/05/06 09:27:47;;;;;;;1.83;1.00;;;21.30;99.90;;;;;;5046248;28;20038;-90
2023/05/06 09:30:43;;;;;;;1.48;0.93;;;21.30;99.90;;;;;;5045663;28;20041;-82
2023/05/06 09:33:31;;;;;;;1.30;0.80;;;22.00;96.10;;;;;;5058351;28;20031;-82
2023/05/06 09:36:24;;;;;;;1.60;0.50;;;22.50;86.60;;;;;;5056014;28;20038;-81
2023/05/06 09:39:11;;;;;;;0.68;0.50;;;22.80;93.70;;;;;;5028592;28;20052;-89
2023/05/06 09:41:59;;;;;;;0.98;0.60;;;23.00;73.90;;;;;;5029380;28;20042;-89
2023/05/06 09:44:46;;;;;;;1.05;0.70;;;22.50;74.20;;;;;;5047825;28;20045;-88
2023/05/06 09:47:35;;;;;;;1.15;0.60;;;22.40;76.30;;;;;;5043758;28;20056;-88
2023/05/06 09:50:27;;;;;;;2.92;0.60;;;23.70;90.20;;;;;;5022547;28;20371;-90
2023/05/06 09:53:17;;;;;;;3.50;0.60;;;24.70;46.90;;;;;;5024043;28;20131;-88
2023/05/06 09:56:07;;;;;;;1.13;0.65;;;25.30;46.40;;;;;;5047386;28;20072;-88
2023/05/06 09:58:56;;;;;;;1.23;0.70;;;25.90;18.30;;;;;;5034126;28;20042;-89
2023/05/06 10:01:52;;;;;;;1.17;0.80;;;24.50;21.50;;;;;;5040941;28;20046;-84
2023/05/06 10:04:44;;;;;;;1.42;0.60;;;24.90;11.20;;;;;;4991201;28;20136;-87
2023/05/06 10:07:34;;;;;;;4.18;0.77;;;24.60;7.80;;;;;;5036850;28;20053;-88
2023/05/06 10:10:23;;;;;;;4.45;1.17;;;24.60;13.30;;;;;;5041609;28;20045;-85
2023/05/06 10:13:14;;;;;;;4.30;1.10;;;24.60;13.20;;;;;;5030718;28;20052;-86
2023/05/06 10:16:04;;;;;;;1.08;0.60;;;24.80;1.00;;;;;;5044518;28;20088;-85
2023/05/06 10:18:54;;;;;;;3.33;0.90;;;24.20;1.00;;;;;;5025586;28;20509;-90
2023/05/06 10:21:50;;;;;;;0.98;0.60;;;24.70;1.00;;;;;;5037723;28;20048;-90
2023/05/06 10:24:54;;;;;;;1.92;0.60;;;25.00;1.00;;;;;;5033643;28;20067;-88
2023/05/06 10:27:45;;;;;;;2.25;1.00;;;24.80;2.30;;;;;;5021543;28;20170;-89
2023/05/06 10:30:34;;;;;;;2.78;0.68;;;25.50;1.00;;;;;;5022885;28;20045;-89
2023/05/06 10:33:26;;;;;;;1.88;0.80;;;25.50;1.00;;;;;;5024063;28;20491;-88
2023/05/06 10:36:26;;;;;;;2.45;0.60;;;26.20;1.00;;;;;;5039953;28;20064;-90
2023/05/06 10:39:14;;;;;;;0.68;0.45;;;26.30;1.00;;;;;;5037915;28;20044;-90
2023/05/06 10:42:01;;;;;;;4.53;0.65;;;27.30;1.00;;;;;;5022648;28;20049;-87
2023/05/06 10:45:00;;;;;;;3.20;0.73;;;28.20;1.00;;;;;;5039390;28;20100;-88
2023/05/06 10:47:56;;;;;;;1.45;0.70;;;28.00;1.00;;;;;;5018955;28;20057;-88
2023/05/06 10:50:44;;;;;;;1.00;0.45;;;27.00;1.00;;;;;;5037001;28;20123;-88
2023/05/06 10:53:54;;;;;;;3.78;0.90;;;26.70;1.00;;;;;;5038356;28;20120;-87
2023/05/06 10:56:48;;;;;;;1.67;0.60;;;26.70;1.00;;;;;;5036121;28;20060;-89
2023/05/06 10:59:35;;;;;;;1.85;0.60;;;26.90;1.00;;;;;;5034143;28;20133;-89
2023/05/06 11:02:23;;;;;;;0.60;0.60;;;25.90;1.00;;;;;;5039048;28;20100;-86
2023/05/06 11:05:11;;;;;;;2.05;0.60;;;26.30;1.00;;;;;;5037484;28;20045;-88
2023/05/06 11:08:09;;;;;;;3.17;0.85;;;25.10;1.00;;;;;;5017858;28;20045;-85
2023/05/06 11:10:56;;;;;;;1.95;0.90;;;23.70;1.00;;;;;;5021391;28;20048;-87
2023/05/06 11:13:46;;;;;;;6.95;0.93;;;22.90;1.00;;;;;;5035617;28;20057;-87
2023/05/06 11:16:49;;;;;;;1.58;0.70;;;22.90;1.00;;;;;;5035727;28;20037;-88
2023/05/06 11:19:39;;;;;;;2.85;1.15;;;23.50;1.00;;;;;;5022287;28;20045;-88
2023/05/06 11:22:47;;;;;;;1.67;0.73;;;24.60;1.00;;;;;;5023054;28;20061;-86
2023/05/06 11:26:06;;;;;;;1.40;0.98;;;25.80;1.00;;;;;;5037166;28;20065;-90
2023/05/06 11:29:06;;;;;;;3.70;0.85;;;26.60;1.00;;;;;;5026441;28;20056;-89
2023/05/06 11:32:21;;;;;;;2.83;1.00;;;26.00;1.00;;;;;;5026003;28;20053;-89
2023/05/06 11:35:36;;;;;;;1.52;1.13;;;26.10;1.00;;;;;;4979908;28;20058;-87
2023/05/06 11:38:46;;;;;;;3.40;0.93;;;24.40;1.00;;;;;;4995472;28;20050;-89
2023/05/06 11:41:42;;;;;;;3.50;1.20;;;23.90;1.00;;;;;;4998093;28;20493;-86
2023/05/06 11:44:35;;;;;;;2.05;1.00;;;24.00;1.00;;;;;;4989891;28;20050;-88
2023/05/06 11:47:22;;;;;;;;;;;24.40;1.00;;;;;;4994233;28;20050;-86
2023/05/06 11:50:10;;;;;;;2.05;0.73;;;25.50;1.00;;;;;;4988762;28;19922;-87
2023/05/06 11:53:00;;;;;;;1.52;0.88;;;25.70;1.00;;;;;;5017753;28;20160;-88
2023/05/06 11:55:50;;;;;;;2.00;1.13;;;26.40;1.00;;;;;;5031308;28;20041;-86
2023/05/06 11:58:42;;;;;;;1.67;0.93;;;26.20;1.00;;;;;;5031348;28;20049;-87
2023/05/06 12:01:29;;;;;;;;;;;25.60;1.00;;;;;;5019832;28;20060;-90
2023/05/06 12:04:17;;;;;;;2.60;1.13;;;24.80;1.00;;;;;;5038985;28;20020;-87
2023/05/06 12:07:06;;;;;;;3.13;1.00;;;24.00;1.00;;;;;;5040228;28;20052;-87
2023/05/06 12:09:53;;;;;;;1.65;0.73;;;23.40;1.00;;;;;;5032566;28;20072;-89
2023/05/06 12:12:41;;;;;;;1.42;1.00;;;23.60;1.00;;;;;;5031645;28;20183;-90
2023/05/06 12:15:33;;;;;;;2.33;0.80;;;24.10;1.00;;;;;;5039974;28;20057;-89
2023/05/06 12:18:24;;;;;;;3.58;1.05;;;25.20;1.00;;;;;;5037843;28;20049;-87
2023/05/06 12:21:13;;;;;;;1.60;1.17;;;26.10;1.00;;;;;;5032178;28;20575;-88
2023/05/06 12:24:01;;;;;;;2.92;0.80;;;27.00;1.00;;;;;;5041668;28;20103;-87
2023/05/06 12:26:48;;;;;;;3.22;0.73;;;28.00;1.00;;;;;;5038232;28;20049;-85
2023/05/06 12:29:38;;;;;;;1.35;0.70;;;28.40;1.00;;;;;;5038209;28;20056;-89
2023/05/06 12:32:25;;;;;;;4.57;0.80;;;28.20;1.00;;;;;;5021876;28;20131;-88
2023/05/06 12:35:24;;;;;;;0.70;0.50;;;28.90;1.00;;;;;;5039994;28;20429;-89
2023/05/06 12:38:14;;;;;;;1.67;0.70;;;28.70;1.00;;;;;;5036548;28;20064;-88
2023/05/06 12:41:03;;;;;;;5.40;0.57;;;29.50;1.00;;;;;;5032595;28;20065;-88
2023/05/06 12:43:56;;;;;;;1.73;0.70;;;28.70;1.00;;;;;;5039308;28;20069;-89
2023/05/06 12:46:51;;;;;;;1.55;0.82;;;27.60;1.00;;;;;;5021831;28;20053;-88
2023/05/06 12:49:59;;;;;;;1.02;0.60;;;26.90;1.00;;;;;;5022514;28;20060;-88
2023/05/06 12:52:47;;;;;;;2.00;0.65;;;26.90;1.00;;;;;;5034053;28;20049;-89
2023/05/06 12:55:36;;;;;;;1.17;0.60;;;27.50;1.00;;;;;;5030831;28;20045;-83
2023/05/06 12:58:23;;;;;;;2.00;0.75;;;27.90;1.00;;;;;;5032856;28;20372;-85
2023/05/06 13:01:17;;;;;;;6.75;0.65;;;27.90;1.00;;;;;;5031291;28;20111;-82
2023/05/06 13:04:04;;;;;;;3.13;0.77;;;27.40;1.00;;;;;;5031874;28;20445;-83
2023/05/06 13:06:52;;;;;;;2.28;0.80;;;26.60;1.00;;;;;;5032199;28;20057;-84
2023/05/06 13:09:39;;;;;;;2.70;0.80;;;26.10;1.00;;;;;;5025194;28;20192;-85
2023/05/06 13:12:32;;;;;;;2.33;0.80;;;26.50;1.00;;;;;;5030174;28;20057;-84
2023/05/06 13:15:19;;;;;;;2.28;1.00;;;26.80;1.00;;;;;;5028317;28;20060;-85
2023/05/06 13:18:07;;;;;;;3.25;0.70;;;27.10;1.00;;;;;;5031462;28;20562;-86
2023/05/06 13:20:55;;;;;;;1.90;0.85;;;26.40;1.00;;;;;;5025279;28;20373;-87
2023/05/06 13:23:46;;;;;;;2.20;0.80;;;25.50;1.00;;;;;;5018305;28;20052;-86
2023/05/06 13:26:34;;;;;;;1.98;0.70;;;24.40;1.00;;;;;;5014971;28;20353;-84
2023/05/06 13:29:24;;;;;;;1.45;0.75;;;24.40;1.00;;;;;;5038256;28;20467;-86
2023/05/06 13:32:12;;;;;;;5.32;1.00;;;25.10;1.00;;;;;;5030270;28;20359;-85
2023/05/06 13:34:59;;;;;;;2.70;0.90;;;25.40;1.00;;;;;;5034680;28;20042;-84
2023/05/06 13:37:48;;;;;;;2.28;0.65;;;25.80;1.00;;;;;;5027668;28;20050;-87
2023/05/06 13:40:36;;;;;;;0.85;0.70;;;25.70;1.00;;;;;;5038771;28;20183;-86
2023/05/06 13:43:23;;;;;;;5.20;0.85;;;25.90;1.00;;;;;;5034398;28;20056;-86
2023/05/06 13:46:11;;;;;;;1.50;0.70;;;26.40;1.00;;;;;;5035214;28;20057;-88
2023/05/06 13:48:58;;;;;;;1.58;0.65;;;26.70;1.00;;;;;;5029796;28;20045;-87
2023/05/06 13:51:45;;;;;;;4.40;0.80;;;27.90;1.00;;;;;;5028187;28;20302;-82
2023/05/06 13:54:33;;;;;;;3.42;1.00;;;27.20;1.00;;;;;;5036387;28;20045;-88
2023/05/06 13:57:24;;;;;;;2.90;0.90;;;26.70;1.00;;;;;;5035159;28;20050;-90
2023/05/06 14:00:12;;;;;;;1.20;0.80;;;26.70;1.00;;;;;;5024391;28;20042;-86
2023/05/06 14:03:15;;;;;;;2.92;0.90;;;26.90;1.00;;;;;;5022754;28;20107;-90
2023/05/06 14:06:18;;;;;;;4.38;0.80;;;26.80;1.00;;;;;;5016176;28;20120;-88
2023/05/06 14:09:06;;;;;;;2.25;0.60;;;27.20;1.00;;;;;;5037284;28;20053;-89
2023/05/06 14:12:35;;;;;;;2.95;0.73;;;27.40;1.00;;;;;;4979816;28;20473;-91
2023/05/06 14:15:28;;;;;;;2.05;0.80;;;27.50;1.00;;;;;;4959489;28;20141;-90
2023/05/06 14:18:15;;;;;;;3.85;0.70;;;27.60;1.00;;;;;;4985423;28;20239;-89
2023/05/06 14:21:02;;;;;;;0.90;0.70;;;28.40;1.00;;;;;;4989618;28;20058;-86
2023/05/06 14:23:57;;;;;;;0.95;0.68;;;28.10;1.00;;;;;;4981914;28;20471;-89
2023/05/06 14:26:47;;;;;;;2.13;0.60;;;28.00;1.00;;;;;;4984582;28;20039;-90
2023/05/06 14:29:34;;;;;;;2.63;0.70;;;27.90;1.00;;;;;;5035415;28;20053;-90
2023/05/06 14:32:21;;;;;;;0.70;0.57;;;28.40;1.00;;;;;;5030958;28;20081;-90
2023/05/06 14:35:09;;;;;;;1.77;0.80;;;27.80;1.00;;;;;;5041412;28;20290;-89
2023/05/06 14:37:59;;;;;;;3.42;0.70;;;27.50;1.00;;;;;;5045203;28;20037;-86
2023/05/06 14:40:49;;;;;;;3.63;1.08;;;28.20;1.00;;;;;;5037962;28;20050;-89
2023/05/06 14:43:36;;;;;;;2.50;0.90;;;27.70;1.00;;;;;;5045465;28;20061;-83
2023/05/06 14:46:26;;;;;;;3.85;0.80;;;27.10;1.00;;;;;;5039939;28;20033;-85
2023/05/06 14:49:15;;;;;;;3.22;0.80;;;26.60;1.00;;;;;;5047202;28;20124;-89
2023/05/06 14:52:03;;;;;;;1.05;0.60;;;26.70;1.00;;;;;;5058688;28;20034;-88
2023/05/06 14:54:50;;;;;;;1.27;0.77;;;27.20;1.00;;;;;;5044803;28;20053;-86
2023/05/06 14:57:37;;;;;;;1.05;0.60;;;26.60;1.00;;;;;;5036220;28;20330;-87
2023/05/06 15:00:24;;;;;;;1.98;0.70;;;26.00;1.00;;;;;;5034184;28;20120;-85